sensor_id;sensor_type;location;lat;lon;timestamp;temperature;humidity
21590;DHT22;10957;50.968;6.828;2023-02-25T00:01:06;4.40;1.00
21590;DHT22;10957;50.968;6.828;2023-02-25T00:06:09;4.60;1.00
21590;DHT22;10957;50.968;6.828;2023-02-25T00:11:15;4.30;1.00
21590;DHT22;10957;50.968;6.828;2023-02-25T00:16:17;4.50;1.00
21590;DHT22;10957;50.968;6.828;2023-02-25T00:21:19;4.50;1.00
21590;DHT22;10957;50.968;6.828;2023-02-25T00:26:20;4.20;1.00
21590;DHT22;10957;50.968;6.828;2023-02-25T00:31:23;4.10;1.00
21590;DHT22;10957;50.968;6.828;2023-02-25T00:36:25;3.70;1.00
21590;DHT22;10957;50.968;6.828;2023-02-25T00:41:28;4.20;1.00
21590;DHT22;10957;50.968;6.828;2023-02-25T00:46:31;4.10;1.00
21590;DHT22;10957;50.968;6.828;2023-02-25T00:51:32;4.10;1.00
21590;DHT22;10957;50.968;6.828;2023-02-25T00:56:34;3.80;1.00
21590;DHT22;10957;50.968;6.828;2023-02-25T01:01:36;4.00;1.00
21590;DHT22;10957;50.968;6.828;2023-02-25T01:06:40;3.70;1.00
21590;DHT22;10957;50.968;6.828;2023-02-25T01:11:45;3.80;1.00
21590;DHT22;10957;50.968;6.828;2023-02-25T01:16:48;3.70;1.00
21590;DHT22;10957;50.968;6.828;2023-02-25T01:21:56;3.90;1.00
21590;DHT22;10957;50.968;6.828;2023-02-25T01:27:01;3.90;1.00
21590;DHT22;10957;50.968;6.828;2023-02-25T01:32:03;3.60;1.00
21590;DHT22;10957;50.968;6.828;2023-02-25T01:37:05;3.80;1.00
21590;DHT22;10957;50.968;6.828;2023-02-25T01:42:13;3.90;1.00
21590;DHT22;10957;50.968;6.828;2023-02-25T01:47:19;3.80;1.00
21590;DHT22;10957;50.968;6.828;2023-02-25T01:52:22;3.40;1.00
21590;DHT22;10957;50.968;6.828;2023-02-25T01:57:25;3.90;1.00
21590;DHT22;10957;50.968;6.828;2023-02-25T02:02:27;3.90;1.00
21590;DHT22;10957;50.968;6.828;2023-02-25T02:07:30;3.70;1.00
21590;DHT22;10957;50.968;6.828;2023-02-25T02:12:35;3.80;1.00
21590;DHT22;10957;50.968;6.828;2023-02-25T02:39:54;3.80;1.00
21590;DHT22;10957;50.968;6.828;2023-02-25T02:45:15;3.90;1.00
21590;DHT22;10957;50.968;6.828;2023-02-25T02:50:33;3.90;1.00
21590;DHT22;10957;50.968;6.828;2023-02-25T02:55:40;3.80;1.00
21590;DHT22;10957;50.968;6.828;2023-02-25T03:00:45;4.00;1.00
21590;DHT22;10957;50.968;6.828;2023-02-25T03:05:50;3.80;1.00
21590;DHT22;10957;50.968;6.828;2023-02-25T03:10:53;3.40;1.00
21590;DHT22;10957;50.968;6.828;2023-02-25T03:15:57;4.00;1.00
21590;DHT22;10957;50.968;6.828;2023-02-25T03:21:01;3.90;1.00
21590;DHT22;10957;50.968;6.828;2023-02-25T03:31:19;3.90;1.00
21590;DHT22;10957;50.968;6.828;2023-02-25T03:36:36;3.80;1.00
21590;DHT22;10957;50.968;6.828;2023-02-25T03:41:41;3.70;1.00
21590;DHT22;10957;50.968;6.828;2023-02-25T03:46:45;4.00;1.00
21590;DHT22;10957;50.968;6.828;2023-02-25T03:51:48;3.70;1.00
21590;DHT22;10957;50.968;6.828;2023-02-25T03:56:50;3.80;1.00
21590;DHT22;10957;50.968;6.828;2023-02-25T04:01:53;4.00;1.00
21590;DHT22;10957;50.968;6.828;2023-02-25T04:06:56;3.90;1.00
21590;DHT22;10957;50.968;6.828;2023-02-25T04:11:57;3.80;1.00
21590;DHT22;10957;50.968;6.828;2023-02-25T04:16:58;3.90;1.00
21590;DHT22;10957;50.968;6.828;2023-02-25T04:22:00;4.00;1.00
21590;DHT22;10957;50.968;6.828;2023-02-25T04:27:02;3.70;1.00
21590;DHT22;10957;50.968;6.828;2023-02-25T04:32:03;4.00;1.00
21590;DHT22;10957;50.968;6.828;2023-02-25T04:37:05;3.90;1.00
21590;DHT22;10957;50.968;6.828;2023-02-25T04:42:06;3.70;1.00
21590;DHT22;10957;50.968;6.828;2023-02-25T04:47:08;3.90;1.00
21590;DHT22;10957;50.968;6.828;2023-02-25T04:52:13;3.90;1.00
21590;DHT22;10957;50.968;6.828;2023-02-25T04:57:15;3.70;1.00
21590;DHT22;10957;50.968;6.828;2023-02-25T05:02:16;3.80;1.00
21590;DHT22;10957;50.968;6.828;2023-02-25T05:07:17;3.80;1.00
21590;DHT22;10957;50.968;6.828;2023-02-25T05:12:18;3.80;1.00
21590;DHT22;10957;50.968;6.828;2023-02-25T05:17:20;3.30;1.00
21590;DHT22;10957;50.968;6.828;2023-02-25T05:22:21;3.90;1.00
21590;DHT22;10957;50.968;6.828;2023-02-25T05:27:22;3.90;1.00
21590;DHT22;10957;50.968;6.828;2023-02-25T05:32:24;3.20;1.00
21590;DHT22;10957;50.968;6.828;2023-02-25T05:37:25;3.90;1.00
21590;DHT22;10957;50.968;6.828;2023-02-25T05:42:27;4.00;1.00
21590;DHT22;10957;50.968;6.828;2023-02-25T05:47:28;4.00;1.00
21590;DHT22;10957;50.968;6.828;2023-02-25T05:52:29;3.90;1.00
21590;DHT22;10957;50.968;6.828;2023-02-25T05:57:31;3.80;1.00
21590;DHT22;10957;50.968;6.828;2023-02-25T06:02:32;3.80;1.00
21590;DHT22;10957;50.968;6.828;2023-02-25T06:07:33;3.80;1.00
21590;DHT22;10957;50.968;6.828;2023-02-25T06:12:35;3.80;1.00
21590;DHT22;10957;50.968;6.828;2023-02-25T06:17:38;3.90;1.00
21590;DHT22;10957;50.968;6.828;2023-02-25T06:22:39;3.80;1.00
21590;DHT22;10957;50.968;6.828;2023-02-25T06:27:41;4.00;1.00
21590;DHT22;10957;50.968;6.828;2023-02-25T06:32:42;3.60;1.00
21590;DHT22;10957;50.968;6.828;2023-02-25T06:37:43;3.90;1.00
21590;DHT22;10957;50.968;6.828;2023-02-25T06:42:45;3.80;1.00
21590;DHT22;10957;50.968;6.828;2023-02-25T06:47:46;4.00;1.00
21590;DHT22;10957;50.968;6.828;2023-02-25T06:52:47;3.90;1.00
21590;DHT22;10957;50.968;6.828;2023-02-25T06:57:48;4.00;1.00
21590;DHT22;10957;50.968;6.828;2023-02-25T07:02:50;4.10;1.00
21590;DHT22;10957;50.968;6.828;2023-02-25T07:07:51;4.10;1.00
21590;DHT22;10957;50.968;6.828;2023-02-25T07:12:52;4.20;1.00
21590;DHT22;10957;50.968;6.828;2023-02-25T07:17:53;4.10;1.00
21590;DHT22;10957;50.968;6.828;2023-02-25T07:22:55;4.00;1.00
21590;DHT22;10957;50.968;6.828;2023-02-25T07:27:56;4.10;1.00
21590;DHT22;10957;50.968;6.828;2023-02-25T07:32:57;4.20;1.00
21590;DHT22;10957;50.968;6.828;2023-02-25T07:37:59;4.10;1.00
21590;DHT22;10957;50.968;6.828;2023-02-25T07:43:00;4.20;1.00
21590;DHT22;10957;50.968;6.828;2023-02-25T07:48:03;4.50;1.00
21590;DHT22;10957;50.968;6.828;2023-02-25T07:53:04;4.30;1.00
21590;DHT22;10957;50.968;6.828;2023-02-25T07:58:06;4.30;1.00
21590;DHT22;10957;50.968;6.828;2023-02-25T08:03:07;4.40;1.00
21590;DHT22;10957;50.968;6.828;2023-02-25T08:08:09;3.90;1.00
21590;DHT22;10957;50.968;6.828;2023-02-25T08:13:10;4.70;1.00
21590;DHT22;10957;50.968;6.828;2023-02-25T08:18:11;4.60;99.90
21590;DHT22;10957;50.968;6.828;2023-02-25T08:23:12;4.80;99.90
21590;DHT22;10957;50.968;6.828;2023-02-25T08:28:14;4.80;99.90
21590;DHT22;10957;50.968;6.828;2023-02-25T08:33:15;4.90;99.90
21590;DHT22;10957;50.968;6.828;2023-02-25T08:38:17;5.00;99.90
21590;DHT22;10957;50.968;6.828;2023-02-25T08:43:18;5.10;99.90
21590;DHT22;10957;50.968;6.828;2023-02-25T08:48:20;4.70;99.90
21590;DHT22;10957;50.968;6.828;2023-02-25T08:53:22;4.90;99.90
21590;DHT22;10957;50.968;6.828;2023-02-25T08:58:23;5.00;99.90
21590;DHT22;10957;50.968;6.828;2023-02-25T09:03:24;5.10;99.90
21590;DHT22;10957;50.968;6.828;2023-02-25T09:08:26;5.20;99.90
21590;DHT22;10957;50.968;6.828;2023-02-25T09:13:28;5.20;99.90
21590;DHT22;10957;50.968;6.828;2023-02-25T09:18:29;4.70;99.90
21590;DHT22;10957;50.968;6.828;2023-02-25T09:23:31;4.50;1.00
21590;DHT22;10957;50.968;6.828;2023-02-25T09:28:33;4.70;1.00
21590;DHT22;10957;50.968;6.828;2023-02-25T09:33:35;4.70;1.00
21590;DHT22;10957;50.968;6.828;2023-02-25T09:38:38;4.70;1.00
21590;DHT22;10957;50.968;6.828;2023-02-25T09:43:41;4.60;1.00
21590;DHT22;10957;50.968;6.828;2023-02-25T09:49:38;4.70;1.00
21590;DHT22;10957;50.968;6.828;2023-02-25T09:54:53;5.00;1.00
21590;DHT22;10957;50.968;6.828;2023-02-25T09:59:55;5.20;1.00
21590;DHT22;10957;50.968;6.828;2023-02-25T10:10:20;5.80;1.00
21590;DHT22;10957;50.968;6.828;2023-02-25T10:21:18;5.90;1.00
21590;DHT22;10957;50.968;6.828;2023-02-25T10:26:26;6.00;1.00
21590;DHT22;10957;50.968;6.828;2023-02-25T10:31:30;6.40;1.00
21590;DHT22;10957;50.968;6.828;2023-02-25T10:36:40;6.20;1.00
21590;DHT22;10957;50.968;6.828;2023-02-25T10:41:43;6.30;99.90
21590;DHT22;10957;50.968;6.828;2023-02-25T10:46:57;6.40;99.90
21590;DHT22;10957;50.968;6.828;2023-02-25T10:52:06;6.60;99.90
21590;DHT22;10957;50.968;6.828;2023-02-25T10:57:17;6.90;99.90
21590;DHT22;10957;50.968;6.828;2023-02-25T11:02:22;6.40;99.90
21590;DHT22;10957;50.968;6.828;2023-02-25T11:07:33;5.30;99.90
21590;DHT22;10957;50.968;6.828;2023-02-25T11:12:52;4.50;99.90
21590;DHT22;10957;50.968;6.828;2023-02-25T11:17:58;3.40;1.00
21590;DHT22;10957;50.968;6.828;2023-02-25T11:23:01;3.50;1.00
21590;DHT22;10957;50.968;6.828;2023-02-25T11:28:03;3.80;1.00
21590;DHT22;10957;50.968;6.828;2023-02-25T11:33:13;3.70;1.00
21590;DHT22;10957;50.968;6.828;2023-02-25T11:38:32;4.00;1.00
21590;DHT22;10957;50.968;6.828;2023-02-25T11:43:39;4.40;1.00
21590;DHT22;10957;50.968;6.828;2023-02-25T11:49:12;4.30;1.00
21590;DHT22;10957;50.968;6.828;2023-02-25T11:54:33;4.90;1.00
21590;DHT22;10957;50.968;6.828;2023-02-25T11:59:58;5.50;1.00
21590;DHT22;10957;50.968;6.828;2023-02-25T12:05:34;5.70;1.00
21590;DHT22;10957;50.968;6.828;2023-02-25T12:21:59;5.60;1.00
21590;DHT22;10957;50.968;6.828;2023-02-25T12:32:48;6.40;1.00
21590;DHT22;10957;50.968;6.828;2023-02-25T12:49:45;6.90;99.90
21590;DHT22;10957;50.968;6.828;2023-02-25T13:00:23;6.70;99.90
21590;DHT22;10957;50.968;6.828;2023-02-25T13:11:29;7.40;99.90
21590;DHT22;10957;50.968;6.828;2023-02-25T13:27:29;5.60;28.90
21590;DHT22;10957;50.968;6.828;2023-02-25T13:32:59;5.30;7.50
21590;DHT22;10957;50.968;6.828;2023-02-25T13:48:40;6.20;10.80
21590;DHT22;10957;50.968;6.828;2023-02-25T14:04:42;7.00;1.00
21590;DHT22;10957;50.968;6.828;2023-02-25T14:52:59;6.10;1.00
21590;DHT22;10957;50.968;6.828;2023-02-25T15:09:21;6.60;1.00
21590;DHT22;10957;50.968;6.828;2023-02-25T15:30:25;5.90;1.00
21590;DHT22;10957;50.968;6.828;2023-02-25T15:45:37;5.90;1.00
21590;DHT22;10957;50.968;6.828;2023-02-25T15:55:43;5.60;1.00
21590;DHT22;10957;50.968;6.828;2023-02-25T16:05:45;5.50;1.00
21590;DHT22;10957;50.968;6.828;2023-02-25T16:10:49;5.50;1.00
21590;DHT22;10957;50.968;6.828;2023-02-25T16:15:52;4.80;1.00
21590;DHT22;10957;50.968;6.828;2023-02-25T16:21:02;4.70;1.00
21590;DHT22;10957;50.968;6.828;2023-02-25T16:31:35;5.00;1.00
21590;DHT22;10957;50.968;6.828;2023-02-25T16:36:46;4.80;1.00
21590;DHT22;10957;50.968;6.828;2023-02-25T16:41:48;4.80;1.00
21590;DHT22;10957;50.968;6.828;2023-02-25T16:46:51;4.30;1.00
21590;DHT22;10957;50.968;6.828;2023-02-25T16:51:53;4.30;1.00
21590;DHT22;10957;50.968;6.828;2023-02-25T16:56:59;4.40;1.00
21590;DHT22;10957;50.968;6.828;2023-02-25T17:12:38;3.90;1.00
21590;DHT22;10957;50.968;6.828;2023-02-25T17:18:09;3.50;1.00
21590;DHT22;10957;50.968;6.828;2023-02-25T17:23:13;3.80;1.00
21590;DHT22;10957;50.968;6.828;2023-02-25T17:28:21;3.80;1.00
21590;DHT22;10957;50.968;6.828;2023-02-25T17:33:25;3.50;1.00
21590;DHT22;10957;50.968;6.828;2023-02-25T17:38:32;3.40;1.00
21590;DHT22;10957;50.968;6.828;2023-02-25T17:43:35;3.00;1.00
21590;DHT22;10957;50.968;6.828;2023-02-25T17:48:37;2.80;1.00
21590;DHT22;10957;50.968;6.828;2023-02-25T17:53:48;2.90;1.00
21590;DHT22;10957;50.968;6.828;2023-02-25T17:58:51;3.30;1.00
21590;DHT22;10957;50.968;6.828;2023-02-25T18:03:53;3.30;1.00
21590;DHT22;10957;50.968;6.828;2023-02-25T18:08:55;3.20;1.00
21590;DHT22;10957;50.968;6.828;2023-02-25T18:13:56;2.90;1.00
21590;DHT22;10957;50.968;6.828;2023-02-25T18:18:58;2.70;1.00
21590;DHT22;10957;50.968;6.828;2023-02-25T18:23:59;2.90;1.00
21590;DHT22;10957;50.968;6.828;2023-02-25T18:29:07;2.80;1.00
21590;DHT22;10957;50.968;6.828;2023-02-25T18:34:08;2.70;1.00
21590;DHT22;10957;50.968;6.828;2023-02-25T18:39:11;2.80;1.00
21590;DHT22;10957;50.968;6.828;2023-02-25T18:44:13;2.90;1.00
21590;DHT22;10957;50.968;6.828;2023-02-25T18:49:14;2.90;1.00
21590;DHT22;10957;50.968;6.828;2023-02-25T18:54:15;3.00;1.00
21590;DHT22;10957;50.968;6.828;2023-02-25T18:59:17;2.50;1.00
21590;DHT22;10957;50.968;6.828;2023-02-25T19:04:18;2.70;1.00
21590;DHT22;10957;50.968;6.828;2023-02-25T19:09:20;2.60;1.00
21590;DHT22;10957;50.968;6.828;2023-02-25T19:14:21;2.30;1.00
21590;DHT22;10957;50.968;6.828;2023-02-25T19:19:23;2.60;1.00
21590;DHT22;10957;50.968;6.828;2023-02-25T19:24:24;2.60;1.00
21590;DHT22;10957;50.968;6.828;2023-02-25T19:29:25;2.40;1.00
21590;DHT22;10957;50.968;6.828;2023-02-25T19:34:26;2.40;1.00
21590;DHT22;10957;50.968;6.828;2023-02-25T19:39:27;2.20;1.00
21590;DHT22;10957;50.968;6.828;2023-02-25T19:44:30;1.90;1.00
21590;DHT22;10957;50.968;6.828;2023-02-25T19:49:32;1.90;1.00
21590;DHT22;10957;50.968;6.828;2023-02-25T19:54:33;1.50;1.00
21590;DHT22;10957;50.968;6.828;2023-02-25T19:59:34;1.10;1.00
21590;DHT22;10957;50.968;6.828;2023-02-25T20:04:37;1.30;1.00
21590;DHT22;10957;50.968;6.828;2023-02-25T20:09:38;1.20;1.00
21590;DHT22;10957;50.968;6.828;2023-02-25T20:14:39;1.30;1.00
21590;DHT22;10957;50.968;6.828;2023-02-25T20:19:40;0.60;1.00
21590;DHT22;10957;50.968;6.828;2023-02-25T20:24:41;1.00;1.00
21590;DHT22;10957;50.968;6.828;2023-02-25T20:29:43;1.10;1.00
21590;DHT22;10957;50.968;6.828;2023-02-25T20:34:44;0.80;1.00
21590;DHT22;10957;50.968;6.828;2023-02-25T20:44:50;0.70;1.00
21590;DHT22;10957;50.968;6.828;2023-02-25T20:49:53;0.60;1.00
21590;DHT22;10957;50.968;6.828;2023-02-25T20:54:55;0.50;1.00
21590;DHT22;10957;50.968;6.828;2023-02-25T20:59:57;0.20;1.00
21590;DHT22;10957;50.968;6.828;2023-02-25T21:04:59;0.20;1.00
21590;DHT22;10957;50.968;6.828;2023-02-25T21:10:00;0.20;1.00
21590;DHT22;10957;50.968;6.828;2023-02-25T21:15:01;0.10;1.00
21590;DHT22;10957;50.968;6.828;2023-02-25T21:20:03;0.10;1.00
21590;DHT22;10957;50.968;6.828;2023-02-25T21:25:07;0.30;1.00
21590;DHT22;10957;50.968;6.828;2023-02-25T21:30:09;0.00;1.00
21590;DHT22;10957;50.968;6.828;2023-02-25T21:35:10;0.20;1.00
21590;DHT22;10957;50.968;6.828;2023-02-25T21:40:11;-0.50;1.00
21590;DHT22;10957;50.968;6.828;2023-02-25T21:45:12;-0.40;1.00
21590;DHT22;10957;50.968;6.828;2023-02-25T21:50:14;-0.20;1.00
21590;DHT22;10957;50.968;6.828;2023-02-25T21:55:15;-0.50;1.00
21590;DHT22;10957;50.968;6.828;2023-02-25T22:00:17;-0.30;1.00
21590;DHT22;10957;50.968;6.828;2023-02-25T22:05:19;-0.50;1.00
21590;DHT22;10957;50.968;6.828;2023-02-25T22:10:20;-0.30;1.00
21590;DHT22;10957;50.968;6.828;2023-02-25T22:15:21;-0.40;1.00
21590;DHT22;10957;50.968;6.828;2023-02-25T22:20:22;-1.00;1.00
21590;DHT22;10957;50.968;6.828;2023-02-25T22:25:24;-0.40;1.00
21590;DHT22;10957;50.968;6.828;2023-02-25T22:30:25;-0.20;1.00
21590;DHT22;10957;50.968;6.828;2023-02-25T22:35:26;-0.70;1.00
21590;DHT22;10957;50.968;6.828;2023-02-25T22:40:27;-0.30;1.00
21590;DHT22;10957;50.968;6.828;2023-02-25T22:45:29;-0.10;1.00
21590;DHT22;10957;50.968;6.828;2023-02-25T22:50:30;-0.30;1.00
21590;DHT22;10957;50.968;6.828;2023-02-25T22:55:32;-0.50;8.10
21590;DHT22;10957;50.968;6.828;2023-02-25T23:00:39;-1.00;4.20
21590;DHT22;10957;50.968;6.828;2023-02-25T23:05:41;-0.60;10.50
21590;DHT22;10957;50.968;6.828;2023-02-25T23:10:42;-0.70;14.80
21590;DHT22;10957;50.968;6.828;2023-02-25T23:15:44;-0.90;21.90
21590;DHT22;10957;50.968;6.828;2023-02-25T23:20:48;-0.50;15.30
21590;DHT22;10957;50.968;6.828;2023-02-25T23:25:53;-0.30;15.10
21590;DHT22;10957;50.968;6.828;2023-02-25T23:30:54;0.10;1.00
21590;DHT22;10957;50.968;6.828;2023-02-25T23:35:57;-0.80;1.00
21590;DHT22;10957;50.968;6.828;2023-02-25T23:40:59;-0.40;1.00
21590;DHT22;10957;50.968;6.828;2023-02-25T23:46:04;-0.40;1.00
21590;DHT22;10957;50.968;6.828;2023-02-25T23:51:06;-0.20;1.00
21590;DHT22;10957;50.968;6.828;2023-02-25T23:56:10;-0.40;1.00
